Nafferton, United Kingdom
Current Conditions -  °F | °C
As of 7:50 AM on Friday 19 Dec 2014 (Local Time) from EGXV Reporting Station
Clear Clear  
Wind Chill: 35°   Ceiling: Unl
Heat Index: 43°   Visibility: 6mi
Dew Point: 34°   Wind: 17mph
Humidity: 70%   Direction: 260°W
Pressure: 29.68"   Gusts: NA
Location:  54.02°N, 0.39°W
Report Text: EGXV 190750Z AUTO 26015KT 9999 NCD 06/01 Q1005
Loading
Personal Weather Stations






























Interactive Weather Map New forecast layout! Learn more

10-Day Weather Forecast

Advertisements
Track Severe Weather on mobile